createdAt,value
2022-10-08T00:09:08.930Z,6.70
2022-10-08T00:19:15.653Z,6.70
2022-10-08T00:29:22.488Z,6.70
2022-10-08T00:39:26.429Z,6.30
2022-10-08T00:49:31.176Z,6.10
2022-10-08T00:59:35.737Z,5.80
2022-10-08T01:09:47.158Z,5.50
2022-10-08T01:20:23.085Z,5.30
2022-10-08T01:30:27.756Z,5.30
2022-10-08T01:40:33.941Z,5.50
2022-10-08T01:50:42.766Z,5.80
2022-10-08T02:00:48.784Z,6.00
2022-10-08T02:10:54.154Z,6.20
2022-10-08T02:21:03.218Z,6.30
2022-10-08T02:31:14.241Z,6.00
2022-10-08T02:41:20.244Z,5.70
2022-10-08T02:51:27.811Z,5.50
2022-10-08T03:01:39.632Z,5.40
2022-10-08T03:11:44.468Z,5.50
2022-10-08T03:21:50.885Z,5.50
2022-10-08T03:31:55.497Z,5.40
2022-10-08T03:41:58.733Z,5.20
2022-10-08T03:52:03.305Z,5.30
2022-10-08T04:02:06.654Z,5.40
2022-10-08T04:12:11.369Z,5.50
2022-10-08T04:22:14.628Z,5.60
2022-10-08T04:32:19.639Z,5.50
2022-10-08T04:42:22.924Z,5.30
2022-10-08T04:52:27.550Z,4.90
2022-10-08T05:02:30.941Z,4.60
2022-10-08T05:12:35.613Z,4.60
2022-10-08T05:22:38.878Z,4.50
2022-10-08T05:32:43.657Z,4.70
2022-10-08T05:42:47.235Z,5.00
2022-10-08T05:52:52.158Z,5.30
2022-10-08T06:02:55.497Z,5.40
2022-10-08T06:13:00.100Z,5.80
2022-10-08T06:23:03.459Z,6.40
2022-10-08T06:33:08.372Z,7.90
2022-10-08T06:43:14.604Z,9.80
2022-10-08T06:53:19.266Z,15.20
2022-10-08T07:03:22.495Z,18.80
2022-10-08T07:13:27.222Z,21.40
2022-10-08T07:23:31.549Z,23.60
2022-10-08T07:33:36.233Z,26.10
2022-10-08T07:43:41.226Z,27.70
2022-10-08T07:53:46.139Z,29.20
2022-10-08T08:03:55.381Z,30.50
2022-10-08T08:14:00.017Z,32.70
2022-10-08T08:24:07.271Z,34.80
2022-10-08T08:34:18.154Z,36.30
2022-10-08T08:44:25.095Z,38.50
2022-10-08T08:54:29.915Z,40.50
2022-10-08T09:04:45.207Z,42.00
2022-10-08T09:14:54.786Z,43.20
2022-10-08T09:25:01.557Z,44.50
2022-10-08T09:35:10.509Z,44.40
2022-10-08T09:45:34.163Z,46.10
2022-10-08T09:55:38.882Z,47.50
2022-10-08T10:05:42.645Z,48.10
2022-10-08T10:15:52.087Z,48.70
2022-10-08T10:26:04.114Z,49.40
2022-10-08T10:36:16.083Z,50.40
2022-10-08T10:46:34.019Z,51.30
2022-10-08T10:56:46.083Z,52.20
2022-10-08T11:07:07.225Z,50.90
2022-10-08T11:17:30.085Z,52.00
2022-10-08T11:27:45.505Z,51.20
2022-10-08T11:37:58.565Z,52.00
2022-10-08T11:48:05.424Z,51.50
2022-10-08T11:58:23.834Z,52.70
2022-10-08T12:08:51.672Z,50.40
2022-10-08T12:18:58.114Z,46.90
2022-10-08T12:29:01.386Z,48.70
2022-10-08T12:39:17.919Z,50.50
2022-10-08T12:49:30.675Z,48.70
2022-10-08T12:59:35.529Z,47.80
2022-10-08T13:09:39.944Z,46.90
2022-10-08T13:19:44.627Z,45.90
2022-10-08T13:29:47.948Z,43.60
2022-10-08T13:39:55.215Z,42.10
2022-10-08T13:50:02.258Z,40.30
2022-10-08T14:00:13.301Z,38.90
2022-10-08T14:10:18.266Z,37.50
2022-10-08T14:20:23.030Z,36.50
2022-10-08T14:30:27.335Z,31.50
2022-10-08T14:40:32.138Z,26.50
2022-10-08T14:50:35.426Z,24.00
2022-10-08T15:00:40.002Z,22.20
2022-10-08T15:10:43.359Z,21.00
2022-10-08T15:20:56.162Z,19.90
2022-10-08T15:31:05.472Z,18.90
2022-10-08T15:41:10.235Z,18.00
2022-10-08T15:51:15.141Z,17.20
2022-10-08T16:01:23.345Z,16.50
2022-10-08T16:11:29.302Z,16.00
2022-10-08T16:21:36.204Z,15.30
2022-10-08T16:31:41.042Z,14.70
2022-10-08T16:41:45.689Z,14.20
2022-10-08T16:51:49.091Z,13.90
2022-10-08T17:01:56.730Z,13.70
2022-10-08T17:12:00.185Z,13.30
2022-10-08T17:22:04.849Z,12.80
2022-10-08T17:32:08.140Z,12.60
2022-10-08T17:42:12.747Z,12.40
2022-10-08T17:52:16.174Z,12.30
2022-10-08T18:02:26.990Z,12.00
2022-10-08T18:12:30.362Z,11.70
2022-10-08T18:22:35.345Z,11.40
2022-10-08T18:32:38.706Z,11.20
2022-10-08T18:42:43.409Z,10.90
2022-10-08T18:52:46.960Z,10.60
2022-10-08T19:02:54.341Z,10.30
2022-10-08T19:12:57.690Z,10.20
2022-10-08T19:23:02.725Z,10.00
2022-10-08T19:33:06.217Z,9.80
2022-10-08T19:43:10.935Z,10.30
2022-10-08T19:53:15.006Z,10.90
2022-10-08T20:03:19.714Z,11.00
2022-10-08T20:13:22.954Z,10.90
2022-10-08T20:23:27.609Z,10.90
2022-10-08T20:33:30.978Z,10.80
2022-10-08T20:43:37.830Z,10.70
2022-10-08T20:53:41.953Z,10.70
2022-10-08T21:03:47.820Z,10.80
2022-10-08T21:13:51.641Z,11.10
2022-10-08T21:23:56.638Z,11.30
2022-10-08T21:34:00.992Z,11.40
2022-10-08T21:44:08.625Z,11.50
2022-10-08T21:54:12.243Z,11.60
2022-10-08T22:04:19.300Z,11.70
2022-10-08T22:14:22.547Z,11.90
2022-10-08T22:24:27.459Z,12.00
2022-10-08T22:34:30.942Z,12.00
2022-10-08T22:44:35.570Z,12.00
2022-10-08T22:54:38.897Z,12.00
2022-10-08T23:04:43.503Z,12.10
2022-10-08T23:14:46.839Z,12.20
2022-10-08T23:24:51.447Z,12.20
2022-10-08T23:34:54.790Z,12.20
2022-10-08T23:44:59.542Z,12.20
2022-10-08T23:55:02.908Z,12.10
